sensor_id;sensor_type;location;lat;lon;timestamp;temperature;humidity
20973;DHT22;10645;52.370;13.314;2022-12-07T00:01:24;2.60;99.90
20973;DHT22;10645;52.370;13.314;2022-12-07T00:03:53;2.60;99.90
20973;DHT22;10645;52.370;13.314;2022-12-07T00:06:19;2.60;99.90
20973;DHT22;10645;52.370;13.314;2022-12-07T00:08:47;2.50;99.90
20973;DHT22;10645;52.370;13.314;2022-12-07T00:11:18;2.50;99.90
20973;DHT22;10645;52.370;13.314;2022-12-07T00:13:45;2.40;99.90
20973;DHT22;10645;52.370;13.314;2022-12-07T00:16:16;2.40;99.90
20973;DHT22;10645;52.370;13.314;2022-12-07T00:18:43;2.40;99.90
20973;DHT22;10645;52.370;13.314;2022-12-07T00:21:13;2.40;99.90
20973;DHT22;10645;52.370;13.314;2022-12-07T00:23:41;2.40;99.90
20973;DHT22;10645;52.370;13.314;2022-12-07T00:28:35;2.40;99.90
20973;DHT22;10645;52.370;13.314;2022-12-07T00:31:11;2.30;99.90
20973;DHT22;10645;52.370;13.314;2022-12-07T00:33:38;2.30;99.90
20973;DHT22;10645;52.370;13.314;2022-12-07T00:36:07;2.30;99.90
20973;DHT22;10645;52.370;13.314;2022-12-07T00:38:35;2.20;99.90
20973;DHT22;10645;52.370;13.314;2022-12-07T00:41:07;2.10;99.90
20973;DHT22;10645;52.370;13.314;2022-12-07T00:43:33;2.10;99.90
20973;DHT22;10645;52.370;13.314;2022-12-07T00:45:59;2.00;99.90
20973;DHT22;10645;52.370;13.314;2022-12-07T00:48:26;1.90;99.90
20973;DHT22;10645;52.370;13.314;2022-12-07T00:50:52;1.90;99.90
20973;DHT22;10645;52.370;13.314;2022-12-07T00:53:18;1.80;99.90
20973;DHT22;10645;52.370;13.314;2022-12-07T00:55:45;1.70;99.90
20973;DHT22;10645;52.370;13.314;2022-12-07T00:58:12;1.70;99.90
20973;DHT22;10645;52.370;13.314;2022-12-07T01:00:40;1.60;99.90
20973;DHT22;10645;52.370;13.314;2022-12-07T01:03:08;1.70;99.90
20973;DHT22;10645;52.370;13.314;2022-12-07T01:05:34;1.70;99.90
20973;DHT22;10645;52.370;13.314;2022-12-07T01:08:00;1.70;99.90
20973;DHT22;10645;52.370;13.314;2022-12-07T01:10:27;1.70;99.90
20973;DHT22;10645;52.370;13.314;2022-12-07T01:12:54;1.70;99.90
20973;DHT22;10645;52.370;13.314;2022-12-07T01:15:20;1.70;99.90
20973;DHT22;10645;52.370;13.314;2022-12-07T01:17:46;1.70;99.90
20973;DHT22;10645;52.370;13.314;2022-12-07T01:20:12;1.70;99.90
20973;DHT22;10645;52.370;13.314;2022-12-07T01:22:40;1.60;99.90
20973;DHT22;10645;52.370;13.314;2022-12-07T01:25:08;1.60;99.90
20973;DHT22;10645;52.370;13.314;2022-12-07T01:27:34;1.60;99.90
20973;DHT22;10645;52.370;13.314;2022-12-07T01:30:01;1.60;99.90
20973;DHT22;10645;52.370;13.314;2022-12-07T01:32:27;1.60;99.90
20973;DHT22;10645;52.370;13.314;2022-12-07T01:34:54;1.50;99.90
20973;DHT22;10645;52.370;13.314;2022-12-07T01:37:20;1.50;99.90
20973;DHT22;10645;52.370;13.314;2022-12-07T01:39:51;1.50;99.90
20973;DHT22;10645;52.370;13.314;2022-12-07T01:42:18;1.50;99.90
20973;DHT22;10645;52.370;13.314;2022-12-07T01:47:56;1.40;99.90
20973;DHT22;10645;52.370;13.314;2022-12-07T01:50:26;1.30;99.90
20973;DHT22;10645;52.370;13.314;2022-12-07T01:52:55;1.30;99.90
20973;DHT22;10645;52.370;13.314;2022-12-07T01:55:22;1.20;99.90
20973;DHT22;10645;52.370;13.314;2022-12-07T01:57:52;1.20;99.90
20973;DHT22;10645;52.370;13.314;2022-12-07T02:00:19;1.20;99.90
20973;DHT22;10645;52.370;13.314;2022-12-07T02:02:55;1.20;99.90
20973;DHT22;10645;52.370;13.314;2022-12-07T02:05:23;1.20;99.90
20973;DHT22;10645;52.370;13.314;2022-12-07T02:07:51;1.10;99.90
20973;DHT22;10645;52.370;13.314;2022-12-07T02:10:28;1.10;99.90
20973;DHT22;10645;52.370;13.314;2022-12-07T02:13:13;1.10;99.90
20973;DHT22;10645;52.370;13.314;2022-12-07T02:18:48;1.10;99.90
20973;DHT22;10645;52.370;13.314;2022-12-07T02:21:45;1.10;99.90
20973;DHT22;10645;52.370;13.314;2022-12-07T02:27:06;1.10;99.90
20973;DHT22;10645;52.370;13.314;2022-12-07T02:32:24;1.10;99.90
20973;DHT22;10645;52.370;13.314;2022-12-07T02:35:02;1.10;99.90
20973;DHT22;10645;52.370;13.314;2022-12-07T02:37:42;1.10;99.90
20973;DHT22;10645;52.370;13.314;2022-12-07T02:43:06;1.10;99.90
20973;DHT22;10645;52.370;13.314;2022-12-07T02:45:34;1.20;99.90
20973;DHT22;10645;52.370;13.314;2022-12-07T02:48:02;1.20;99.90
20973;DHT22;10645;52.370;13.314;2022-12-07T02:50:30;1.20;99.90
20973;DHT22;10645;52.370;13.314;2022-12-07T02:52:56;1.10;99.90
20973;DHT22;10645;52.370;13.314;2022-12-07T02:55:28;1.20;99.90
20973;DHT22;10645;52.370;13.314;2022-12-07T02:58:16;1.20;99.90
20973;DHT22;10645;52.370;13.314;2022-12-07T03:00:57;1.20;99.90
20973;DHT22;10645;52.370;13.314;2022-12-07T03:03:26;1.20;99.90
20973;DHT22;10645;52.370;13.314;2022-12-07T03:06:16;1.20;99.90
20973;DHT22;10645;52.370;13.314;2022-12-07T03:09:05;1.20;99.90
20973;DHT22;10645;52.370;13.314;2022-12-07T03:11:45;1.30;99.90
20973;DHT22;10645;52.370;13.314;2022-12-07T03:14:29;1.30;99.90
20973;DHT22;10645;52.370;13.314;2022-12-07T03:17:00;1.30;99.90
20973;DHT22;10645;52.370;13.314;2022-12-07T03:19:31;1.30;99.90
20973;DHT22;10645;52.370;13.314;2022-12-07T03:22:02;1.30;99.90
20973;DHT22;10645;52.370;13.314;2022-12-07T03:27:18;1.30;99.90
20973;DHT22;10645;52.370;13.314;2022-12-07T03:29:56;1.30;99.90
20973;DHT22;10645;52.370;13.314;2022-12-07T03:35:22;1.30;99.90
20973;DHT22;10645;52.370;13.314;2022-12-07T03:38:00;1.30;99.90
20973;DHT22;10645;52.370;13.314;2022-12-07T03:40:39;1.30;99.90
20973;DHT22;10645;52.370;13.314;2022-12-07T03:43:06;1.30;99.90
20973;DHT22;10645;52.370;13.314;2022-12-07T03:45:44;1.30;99.90
20973;DHT22;10645;52.370;13.314;2022-12-07T03:48:25;1.30;99.90
20973;DHT22;10645;52.370;13.314;2022-12-07T03:51:01;1.30;99.90
20973;DHT22;10645;52.370;13.314;2022-12-07T03:53:39;1.40;99.90
20973;DHT22;10645;52.370;13.314;2022-12-07T03:56:09;1.40;99.90
20973;DHT22;10645;52.370;13.314;2022-12-07T03:58:37;1.40;99.90
20973;DHT22;10645;52.370;13.314;2022-12-07T04:01:03;1.40;99.90
20973;DHT22;10645;52.370;13.314;2022-12-07T04:03:30;1.40;99.90
20973;DHT22;10645;52.370;13.314;2022-12-07T04:05:56;1.40;99.90
20973;DHT22;10645;52.370;13.314;2022-12-07T04:08:23;1.50;99.90
20973;DHT22;10645;52.370;13.314;2022-12-07T04:10:49;1.50;99.90
20973;DHT22;10645;52.370;13.314;2022-12-07T04:13:15;1.50;99.90
20973;DHT22;10645;52.370;13.314;2022-12-07T04:15:42;1.50;99.90
20973;DHT22;10645;52.370;13.314;2022-12-07T04:18:08;1.50;99.90
20973;DHT22;10645;52.370;13.314;2022-12-07T04:20:34;1.50;99.90
20973;DHT22;10645;52.370;13.314;2022-12-07T04:23:00;1.60;99.90
20973;DHT22;10645;52.370;13.314;2022-12-07T04:25:26;1.60;99.90
20973;DHT22;10645;52.370;13.314;2022-12-07T04:27:52;1.50;99.90
20973;DHT22;10645;52.370;13.314;2022-12-07T04:30:20;1.50;99.90
20973;DHT22;10645;52.370;13.314;2022-12-07T04:32:46;1.50;99.90
20973;DHT22;10645;52.370;13.314;2022-12-07T04:35:12;1.50;99.90
20973;DHT22;10645;52.370;13.314;2022-12-07T04:37:38;1.50;99.90
20973;DHT22;10645;52.370;13.314;2022-12-07T04:40:08;1.60;99.90
20973;DHT22;10645;52.370;13.314;2022-12-07T04:42:36;1.60;99.90
20973;DHT22;10645;52.370;13.314;2022-12-07T04:45:02;1.60;99.90
20973;DHT22;10645;52.370;13.314;2022-12-07T04:47:28;1.60;99.90
20973;DHT22;10645;52.370;13.314;2022-12-07T04:49:54;1.60;99.90
20973;DHT22;10645;52.370;13.314;2022-12-07T04:52:20;1.60;99.90
20973;DHT22;10645;52.370;13.314;2022-12-07T04:54:46;1.70;99.90
20973;DHT22;10645;52.370;13.314;2022-12-07T04:57:12;1.70;99.90
20973;DHT22;10645;52.370;13.314;2022-12-07T04:59:38;1.80;99.90
20973;DHT22;10645;52.370;13.314;2022-12-07T05:02:04;1.80;99.90
20973;DHT22;10645;52.370;13.314;2022-12-07T05:04:31;1.80;99.90
20973;DHT22;10645;52.370;13.314;2022-12-07T05:06:57;1.80;99.90
20973;DHT22;10645;52.370;13.314;2022-12-07T05:09:23;1.80;99.90
20973;DHT22;10645;52.370;13.314;2022-12-07T05:11:49;1.80;99.90
20973;DHT22;10645;52.370;13.314;2022-12-07T05:14:17;1.90;99.90
20973;DHT22;10645;52.370;13.314;2022-12-07T05:16:45;1.90;99.90
20973;DHT22;10645;52.370;13.314;2022-12-07T05:19:12;1.90;99.90
20973;DHT22;10645;52.370;13.314;2022-12-07T05:21:39;1.90;99.90
20973;DHT22;10645;52.370;13.314;2022-12-07T05:24:06;1.90;99.90
20973;DHT22;10645;52.370;13.314;2022-12-07T05:26:32;1.90;99.90
20973;DHT22;10645;52.370;13.314;2022-12-07T05:28:59;1.90;99.90
20973;DHT22;10645;52.370;13.314;2022-12-07T05:31:26;1.90;99.90
20973;DHT22;10645;52.370;13.314;2022-12-07T05:33:52;2.00;99.90
20973;DHT22;10645;52.370;13.314;2022-12-07T05:36:18;2.00;99.90
20973;DHT22;10645;52.370;13.314;2022-12-07T05:38:45;2.00;99.90
20973;DHT22;10645;52.370;13.314;2022-12-07T05:41:14;2.00;99.90
20973;DHT22;10645;52.370;13.314;2022-12-07T05:43:59;2.00;99.90
20973;DHT22;10645;52.370;13.314;2022-12-07T05:46:26;2.00;99.90
20973;DHT22;10645;52.370;13.314;2022-12-07T05:48:52;2.10;99.90
20973;DHT22;10645;52.370;13.314;2022-12-07T05:51:18;2.10;99.90
20973;DHT22;10645;52.370;13.314;2022-12-07T05:53:44;2.10;99.90
20973;DHT22;10645;52.370;13.314;2022-12-07T05:56:11;2.20;99.90
20973;DHT22;10645;52.370;13.314;2022-12-07T05:58:37;2.20;99.90
20973;DHT22;10645;52.370;13.314;2022-12-07T06:01:21;2.20;99.90
20973;DHT22;10645;52.370;13.314;2022-12-07T06:03:47;2.20;99.90
20973;DHT22;10645;52.370;13.314;2022-12-07T06:06:13;2.30;99.90
20973;DHT22;10645;52.370;13.314;2022-12-07T06:08:39;2.30;99.90
20973;DHT22;10645;52.370;13.314;2022-12-07T06:11:05;2.30;99.90
20973;DHT22;10645;52.370;13.314;2022-12-07T06:13:50;2.30;99.90
20973;DHT22;10645;52.370;13.314;2022-12-07T06:16:16;2.40;99.90
20973;DHT22;10645;52.370;13.314;2022-12-07T06:18:42;2.40;99.90
20973;DHT22;10645;52.370;13.314;2022-12-07T06:21:08;2.40;99.90
20973;DHT22;10645;52.370;13.314;2022-12-07T06:23:34;2.40;99.90
20973;DHT22;10645;52.370;13.314;2022-12-07T06:26:00;2.40;99.90
20973;DHT22;10645;52.370;13.314;2022-12-07T06:28:26;2.50;99.90
20973;DHT22;10645;52.370;13.314;2022-12-07T06:31:02;2.50;99.90
20973;DHT22;10645;52.370;13.314;2022-12-07T06:33:29;2.60;99.90
20973;DHT22;10645;52.370;13.314;2022-12-07T06:35:55;2.60;99.90
20973;DHT22;10645;52.370;13.314;2022-12-07T06:38:21;2.60;99.90
20973;DHT22;10645;52.370;13.314;2022-12-07T06:40:47;2.70;99.90
20973;DHT22;10645;52.370;13.314;2022-12-07T06:43:14;2.70;99.90
20973;DHT22;10645;52.370;13.314;2022-12-07T06:45:43;2.70;99.90
20973;DHT22;10645;52.370;13.314;2022-12-07T06:48:09;2.70;99.90
20973;DHT22;10645;52.370;13.314;2022-12-07T06:50:35;2.70;99.90
20973;DHT22;10645;52.370;13.314;2022-12-07T06:53:01;2.70;99.90
20973;DHT22;10645;52.370;13.314;2022-12-07T06:55:27;2.70;99.90
20973;DHT22;10645;52.370;13.314;2022-12-07T06:57:53;2.80;99.90
20973;DHT22;10645;52.370;13.314;2022-12-07T07:00:19;2.80;99.90
20973;DHT22;10645;52.370;13.314;2022-12-07T07:02:45;2.90;99.90
20973;DHT22;10645;52.370;13.314;2022-12-07T07:05:11;2.90;99.90
20973;DHT22;10645;52.370;13.314;2022-12-07T07:07:38;2.90;99.90
20973;DHT22;10645;52.370;13.314;2022-12-07T07:10:04;2.90;99.90
20973;DHT22;10645;52.370;13.314;2022-12-07T07:12:30;2.90;99.90
20973;DHT22;10645;52.370;13.314;2022-12-07T07:14:56;2.90;99.90
20973;DHT22;10645;52.370;13.314;2022-12-07T07:17:23;2.90;99.90
20973;DHT22;10645;52.370;13.314;2022-12-07T07:19:49;2.90;99.90
20973;DHT22;10645;52.370;13.314;2022-12-07T07:22:15;2.90;99.90
20973;DHT22;10645;52.370;13.314;2022-12-07T07:24:41;2.90;99.90
20973;DHT22;10645;52.370;13.314;2022-12-07T07:27:07;3.00;99.90
20973;DHT22;10645;52.370;13.314;2022-12-07T07:29:33;3.10;99.90
20973;DHT22;10645;52.370;13.314;2022-12-07T07:31:59;3.10;99.90
20973;DHT22;10645;52.370;13.314;2022-12-07T07:34:25;3.10;99.90
20973;DHT22;10645;52.370;13.314;2022-12-07T07:36:51;3.10;99.90
20973;DHT22;10645;52.370;13.314;2022-12-07T07:39:17;3.20;99.90
20973;DHT22;10645;52.370;13.314;2022-12-07T07:41:44;3.20;99.90
20973;DHT22;10645;52.370;13.314;2022-12-07T07:44:13;3.30;99.90
20973;DHT22;10645;52.370;13.314;2022-12-07T07:46:39;3.30;99.90
20973;DHT22;10645;52.370;13.314;2022-12-07T07:49:05;3.30;99.90
20973;DHT22;10645;52.370;13.314;2022-12-07T07:51:31;3.30;99.90
20973;DHT22;10645;52.370;13.314;2022-12-07T07:53:57;3.30;99.90
20973;DHT22;10645;52.370;13.314;2022-12-07T07:56:23;3.30;99.90
20973;DHT22;10645;52.370;13.314;2022-12-07T07:58:52;3.30;99.90
20973;DHT22;10645;52.370;13.314;2022-12-07T08:01:18;3.40;99.90
20973;DHT22;10645;52.370;13.314;2022-12-07T08:03:48;3.40;99.90
20973;DHT22;10645;52.370;13.314;2022-12-07T08:06:14;3.40;99.90
20973;DHT22;10645;52.370;13.314;2022-12-07T08:08:41;3.40;99.90
20973;DHT22;10645;52.370;13.314;2022-12-07T08:11:09;3.40;99.90
20973;DHT22;10645;52.370;13.314;2022-12-07T08:13:36;3.50;99.90
20973;DHT22;10645;52.370;13.314;2022-12-07T08:16:07;3.50;99.90
20973;DHT22;10645;52.370;13.314;2022-12-07T08:18:35;3.50;99.90
20973;DHT22;10645;52.370;13.314;2022-12-07T08:21:03;3.50;99.90
20973;DHT22;10645;52.370;13.314;2022-12-07T08:23:29;3.50;99.90
20973;DHT22;10645;52.370;13.314;2022-12-07T08:26:07;3.60;99.90
20973;DHT22;10645;52.370;13.314;2022-12-07T08:28:33;3.60;99.90
20973;DHT22;10645;52.370;13.314;2022-12-07T08:31:04;3.60;99.90
20973;DHT22;10645;52.370;13.314;2022-12-07T08:33:30;3.70;99.90
20973;DHT22;10645;52.370;13.314;2022-12-07T08:36:02;3.70;99.90
20973;DHT22;10645;52.370;13.314;2022-12-07T08:38:28;3.70;99.90
20973;DHT22;10645;52.370;13.314;2022-12-07T08:40:58;3.70;99.90
20973;DHT22;10645;52.370;13.314;2022-12-07T08:43:24;3.70;99.90
20973;DHT22;10645;52.370;13.314;2022-12-07T08:46:05;3.70;99.90
20973;DHT22;10645;52.370;13.314;2022-12-07T08:48:33;3.70;99.90
20973;DHT22;10645;52.370;13.314;2022-12-07T08:51:01;3.80;99.90
20973;DHT22;10645;52.370;13.314;2022-12-07T08:53:28;3.80;99.90
20973;DHT22;10645;52.370;13.314;2022-12-07T08:55:56;3.90;99.90
20973;DHT22;10645;52.370;13.314;2022-12-07T08:58:23;3.90;99.90
20973;DHT22;10645;52.370;13.314;2022-12-07T09:00:49;3.80;99.90
20973;DHT22;10645;52.370;13.314;2022-12-07T09:03:15;3.90;99.90
20973;DHT22;10645;52.370;13.314;2022-12-07T09:05:41;3.90;99.90
20973;DHT22;10645;52.370;13.314;2022-12-07T09:08:07;3.90;99.90
20973;DHT22;10645;52.370;13.314;2022-12-07T09:10:33;3.90;99.90
20973;DHT22;10645;52.370;13.314;2022-12-07T09:13:00;3.90;99.90
20973;DHT22;10645;52.370;13.314;2022-12-07T09:15:29;3.80;99.90
20973;DHT22;10645;52.370;13.314;2022-12-07T09:17:55;3.80;99.90
20973;DHT22;10645;52.370;13.314;2022-12-07T09:20:22;3.80;99.90
20973;DHT22;10645;52.370;13.314;2022-12-07T09:22:48;3.80;99.90
20973;DHT22;10645;52.370;13.314;2022-12-07T09:25:14;3.70;99.90
20973;DHT22;10645;52.370;13.314;2022-12-07T09:27:40;3.80;99.90
20973;DHT22;10645;52.370;13.314;2022-12-07T09:30:07;3.70;99.90
20973;DHT22;10645;52.370;13.314;2022-12-07T09:32:33;3.70;99.90
20973;DHT22;10645;52.370;13.314;2022-12-07T09:35:00;3.70;99.90
20973;DHT22;10645;52.370;13.314;2022-12-07T09:37:26;3.70;99.90
20973;DHT22;10645;52.370;13.314;2022-12-07T09:39:52;3.80;99.90
20973;DHT22;10645;52.370;13.314;2022-12-07T09:42:28;3.80;99.90
20973;DHT22;10645;52.370;13.314;2022-12-07T09:44:55;3.90;99.90
20973;DHT22;10645;52.370;13.314;2022-12-07T09:47:22;3.90;99.90
20973;DHT22;10645;52.370;13.314;2022-12-07T09:49:48;3.90;99.90
20973;DHT22;10645;52.370;13.314;2022-12-07T09:52:20;3.90;99.90
20973;DHT22;10645;52.370;13.314;2022-12-07T09:54:50;3.90;99.90
20973;DHT22;10645;52.370;13.314;2022-12-07T09:57:17;3.70;99.90
20973;DHT22;10645;52.370;13.314;2022-12-07T09:59:46;3.70;99.90
20973;DHT22;10645;52.370;13.314;2022-12-07T10:02:35;3.80;99.90
20973;DHT22;10645;52.370;13.314;2022-12-07T10:05:04;3.80;99.90
20973;DHT22;10645;52.370;13.314;2022-12-07T10:07:30;3.80;99.90
20973;DHT22;10645;52.370;13.314;2022-12-07T10:09:56;3.70;99.90
20973;DHT22;10645;52.370;13.314;2022-12-07T10:12:22;3.60;99.90
20973;DHT22;10645;52.370;13.314;2022-12-07T10:15:01;3.60;99.90
20973;DHT22;10645;52.370;13.314;2022-12-07T10:17:33;3.60;99.90
20973;DHT22;10645;52.370;13.314;2022-12-07T10:22:54;3.60;99.90
20973;DHT22;10645;52.370;13.314;2022-12-07T10:25:22;3.60;99.90
20973;DHT22;10645;52.370;13.314;2022-12-07T10:30:50;3.60;99.90
20973;DHT22;10645;52.370;13.314;2022-12-07T10:33:37;3.60;99.90
20973;DHT22;10645;52.370;13.314;2022-12-07T10:36:37;3.70;99.90
20973;DHT22;10645;52.370;13.314;2022-12-07T10:39:22;3.80;99.90
20973;DHT22;10645;52.370;13.314;2022-12-07T10:41:55;4.00;99.90
20973;DHT22;10645;52.370;13.314;2022-12-07T10:44:30;4.00;99.90
20973;DHT22;10645;52.370;13.314;2022-12-07T10:49:44;4.20;99.90
20973;DHT22;10645;52.370;13.314;2022-12-07T10:52:42;4.20;99.90
20973;DHT22;10645;52.370;13.314;2022-12-07T10:55:44;4.20;99.90
20973;DHT22;10645;52.370;13.314;2022-12-07T11:04:14;4.20;99.90
20973;DHT22;10645;52.370;13.314;2022-12-07T11:10:13;4.10;99.90
20973;DHT22;10645;52.370;13.314;2022-12-07T11:13:12;4.10;99.90
20973;DHT22;10645;52.370;13.314;2022-12-07T11:18:59;4.00;99.90
20973;DHT22;10645;52.370;13.314;2022-12-07T11:21:45;4.00;99.90
20973;DHT22;10645;52.370;13.314;2022-12-07T11:27:04;4.00;99.90
20973;DHT22;10645;52.370;13.314;2022-12-07T11:32:17;4.00;99.90
20973;DHT22;10645;52.370;13.314;2022-12-07T11:37:37;4.00;99.90
20973;DHT22;10645;52.370;13.314;2022-12-07T11:40:14;4.00;99.90
20973;DHT22;10645;52.370;13.314;2022-12-07T11:42:46;4.00;99.90
20973;DHT22;10645;52.370;13.314;2022-12-07T11:45:20;4.00;99.90
20973;DHT22;10645;52.370;13.314;2022-12-07T11:48:05;4.10;99.90
20973;DHT22;10645;52.370;13.314;2022-12-07T11:50:39;4.10;99.90
20973;DHT22;10645;52.370;13.314;2022-12-07T11:56:15;4.20;99.90
20973;DHT22;10645;52.370;13.314;2022-12-07T12:06:51;4.30;99.90
20973;DHT22;10645;52.370;13.314;2022-12-07T12:09:34;4.30;99.90
20973;DHT22;10645;52.370;13.314;2022-12-07T12:12:27;4.30;99.90
20973;DHT22;10645;52.370;13.314;2022-12-07T12:15:24;4.40;99.90
20973;DHT22;10645;52.370;13.314;2022-12-07T12:18:39;4.40;99.90
20973;DHT22;10645;52.370;13.314;2022-12-07T12:21:10;4.40;99.90
20973;DHT22;10645;52.370;13.314;2022-12-07T12:23:41;4.40;99.90
20973;DHT22;10645;52.370;13.314;2022-12-07T12:26:19;4.40;99.90
20973;DHT22;10645;52.370;13.314;2022-12-07T12:29:01;4.40;99.90
20973;DHT22;10645;52.370;13.314;2022-12-07T12:34:01;4.50;99.90
20973;DHT22;10645;52.370;13.314;2022-12-07T12:39:12;4.60;99.90
20973;DHT22;10645;52.370;13.314;2022-12-07T12:51:52;4.70;99.90
20973;DHT22;10645;52.370;13.314;2022-12-07T13:07:49;4.90;99.90
20973;DHT22;10645;52.370;13.314;2022-12-07T13:15:54;4.80;99.90
20973;DHT22;10645;52.370;13.314;2022-12-07T13:20:59;4.70;99.90
20973;DHT22;10645;52.370;13.314;2022-12-07T13:23:29;4.70;99.90
20973;DHT22;10645;52.370;13.314;2022-12-07T13:28:47;4.60;99.90
20973;DHT22;10645;52.370;13.314;2022-12-07T13:31:30;4.50;99.90
20973;DHT22;10645;52.370;13.314;2022-12-07T13:33:58;4.50;99.90
20973;DHT22;10645;52.370;13.314;2022-12-07T13:36:26;4.40;99.90
20973;DHT22;10645;52.370;13.314;2022-12-07T13:41:42;4.50;99.90
20973;DHT22;10645;52.370;13.314;2022-12-07T13:44:16;4.40;99.90
20973;DHT22;10645;52.370;13.314;2022-12-07T13:46:49;4.40;99.90
20973;DHT22;10645;52.370;13.314;2022-12-07T13:49:47;4.40;99.90
20973;DHT22;10645;52.370;13.314;2022-12-07T13:52:20;4.40;99.90
20973;DHT22;10645;52.370;13.314;2022-12-07T13:54:59;4.40;99.90
20973;DHT22;10645;52.370;13.314;2022-12-07T13:57:28;4.40;99.90
20973;DHT22;10645;52.370;13.314;2022-12-07T13:59:57;4.30;99.90
20973;DHT22;10645;52.370;13.314;2022-12-07T14:02:31;4.30;99.90
20973;DHT22;10645;52.370;13.314;2022-12-07T14:05:16;4.30;99.90
20973;DHT22;10645;52.370;13.314;2022-12-07T14:07:56;4.30;99.90
20973;DHT22;10645;52.370;13.314;2022-12-07T14:12:57;4.30;99.90
20973;DHT22;10645;52.370;13.314;2022-12-07T14:15:28;4.30;99.90
20973;DHT22;10645;52.370;13.314;2022-12-07T14:17:56;4.20;99.90
20973;DHT22;10645;52.370;13.314;2022-12-07T14:20:40;4.20;99.90
20973;DHT22;10645;52.370;13.314;2022-12-07T14:23:24;4.20;99.90
20973;DHT22;10645;52.370;13.314;2022-12-07T14:25:52;4.10;99.90
20973;DHT22;10645;52.370;13.314;2022-12-07T14:28:30;4.20;99.90
20973;DHT22;10645;52.370;13.314;2022-12-07T14:30:57;4.10;99.90
20973;DHT22;10645;52.370;13.314;2022-12-07T14:33:24;4.20;99.90
20973;DHT22;10645;52.370;13.314;2022-12-07T14:35:51;4.10;99.90
20973;DHT22;10645;52.370;13.314;2022-12-07T14:38:24;4.10;99.90
20973;DHT22;10645;52.370;13.314;2022-12-07T14:40:51;4.00;99.90
20973;DHT22;10645;52.370;13.314;2022-12-07T14:43:19;4.00;99.90
20973;DHT22;10645;52.370;13.314;2022-12-07T14:45:46;4.00;99.90
20973;DHT22;10645;52.370;13.314;2022-12-07T14:48:14;3.90;99.90
20973;DHT22;10645;52.370;13.314;2022-12-07T14:50:44;3.90;99.90
20973;DHT22;10645;52.370;13.314;2022-12-07T14:53:14;3.80;99.90
20973;DHT22;10645;52.370;13.314;2022-12-07T14:55:41;3.70;99.90
20973;DHT22;10645;52.370;13.314;2022-12-07T14:58:16;3.70;99.90
20973;DHT22;10645;52.370;13.314;2022-12-07T15:00:43;3.70;99.90
20973;DHT22;10645;52.370;13.314;2022-12-07T15:03:09;3.60;99.90
20973;DHT22;10645;52.370;13.314;2022-12-07T15:05:36;3.60;99.90
20973;DHT22;10645;52.370;13.314;2022-12-07T15:08:02;3.60;99.90
20973;DHT22;10645;52.370;13.314;2022-12-07T15:10:31;3.50;99.90
20973;DHT22;10645;52.370;13.314;2022-12-07T15:13:02;3.40;99.90
20973;DHT22;10645;52.370;13.314;2022-12-07T15:15:49;3.40;99.90
20973;DHT22;10645;52.370;13.314;2022-12-07T15:18:16;3.30;99.90
20973;DHT22;10645;52.370;13.314;2022-12-07T15:20:42;3.20;99.90
20973;DHT22;10645;52.370;13.314;2022-12-07T15:23:09;3.20;99.90
20973;DHT22;10645;52.370;13.314;2022-12-07T15:25:35;3.20;99.90
20973;DHT22;10645;52.370;13.314;2022-12-07T15:28:01;3.20;99.90
20973;DHT22;10645;52.370;13.314;2022-12-07T15:30:27;3.10;99.90
20973;DHT22;10645;52.370;13.314;2022-12-07T15:32:53;3.00;99.90
20973;DHT22;10645;52.370;13.314;2022-12-07T15:35:20;2.90;99.90
20973;DHT22;10645;52.370;13.314;2022-12-07T15:37:46;2.90;99.90
20973;DHT22;10645;52.370;13.314;2022-12-07T15:40:13;2.90;99.90
20973;DHT22;10645;52.370;13.314;2022-12-07T15:42:40;2.80;99.90
20973;DHT22;10645;52.370;13.314;2022-12-07T15:45:07;2.80;99.90
20973;DHT22;10645;52.370;13.314;2022-12-07T15:47:37;2.80;99.90
20973;DHT22;10645;52.370;13.314;2022-12-07T15:50:05;2.80;99.90
20973;DHT22;10645;52.370;13.314;2022-12-07T15:52:32;2.70;99.90
20973;DHT22;10645;52.370;13.314;2022-12-07T15:54:58;2.70;99.90
20973;DHT22;10645;52.370;13.314;2022-12-07T15:57:33;2.70;99.90
20973;DHT22;10645;52.370;13.314;2022-12-07T15:59:59;2.60;99.90
20973;DHT22;10645;52.370;13.314;2022-12-07T16:02:25;2.60;99.90
20973;DHT22;10645;52.370;13.314;2022-12-07T16:04:51;2.60;99.90
20973;DHT22;10645;52.370;13.314;2022-12-07T16:07:18;2.60;99.90
20973;DHT22;10645;52.370;13.314;2022-12-07T16:09:46;2.60;99.90
20973;DHT22;10645;52.370;13.314;2022-12-07T16:12:13;2.60;99.90
20973;DHT22;10645;52.370;13.314;2022-12-07T16:14:39;2.60;99.90
20973;DHT22;10645;52.370;13.314;2022-12-07T16:17:07;2.60;99.90
20973;DHT22;10645;52.370;13.314;2022-12-07T16:19:34;2.60;99.90
20973;DHT22;10645;52.370;13.314;2022-12-07T16:22:01;2.60;99.90
20973;DHT22;10645;52.370;13.314;2022-12-07T16:24:27;2.70;99.90
20973;DHT22;10645;52.370;13.314;2022-12-07T16:26:53;2.70;99.90
20973;DHT22;10645;52.370;13.314;2022-12-07T16:29:21;2.70;99.90
20973;DHT22;10645;52.370;13.314;2022-12-07T16:31:48;2.70;99.90
20973;DHT22;10645;52.370;13.314;2022-12-07T16:34:14;2.70;99.90
20973;DHT22;10645;52.370;13.314;2022-12-07T16:36:41;2.70;99.90
20973;DHT22;10645;52.370;13.314;2022-12-07T16:39:08;2.70;99.90
20973;DHT22;10645;52.370;13.314;2022-12-07T16:41:34;2.80;99.90
20973;DHT22;10645;52.370;13.314;2022-12-07T16:44:09;2.70;99.90
20973;DHT22;10645;52.370;13.314;2022-12-07T16:46:35;2.70;99.90
20973;DHT22;10645;52.370;13.314;2022-12-07T16:49:02;2.70;99.90
20973;DHT22;10645;52.370;13.314;2022-12-07T16:51:29;2.60;99.90
20973;DHT22;10645;52.370;13.314;2022-12-07T16:53:55;2.70;99.90
20973;DHT22;10645;52.370;13.314;2022-12-07T16:56:21;2.60;99.90
20973;DHT22;10645;52.370;13.314;2022-12-07T16:58:47;2.60;99.90
20973;DHT22;10645;52.370;13.314;2022-12-07T17:01:19;2.60;99.90
20973;DHT22;10645;52.370;13.314;2022-12-07T17:03:46;2.60;99.90
20973;DHT22;10645;52.370;13.314;2022-12-07T17:06:17;2.60;99.90
20973;DHT22;10645;52.370;13.314;2022-12-07T17:08:44;2.50;99.90
20973;DHT22;10645;52.370;13.314;2022-12-07T17:11:18;2.50;99.90
20973;DHT22;10645;52.370;13.314;2022-12-07T17:13:44;2.50;99.90
20973;DHT22;10645;52.370;13.314;2022-12-07T17:16:29;2.50;99.90
20973;DHT22;10645;52.370;13.314;2022-12-07T17:18:56;2.50;99.90
20973;DHT22;10645;52.370;13.314;2022-12-07T17:21:22;2.50;99.90
20973;DHT22;10645;52.370;13.314;2022-12-07T17:23:49;2.40;99.90
20973;DHT22;10645;52.370;13.314;2022-12-07T17:26:18;2.40;99.90
20973;DHT22;10645;52.370;13.314;2022-12-07T17:28:45;2.40;99.90
20973;DHT22;10645;52.370;13.314;2022-12-07T17:31:13;2.40;99.90
20973;DHT22;10645;52.370;13.314;2022-12-07T17:33:40;2.30;99.90
20973;DHT22;10645;52.370;13.314;2022-12-07T17:36:17;2.30;99.90